Pensacola Regional Airport
KPNS : rendu visible

Aérodrome :











RETROUVEZ-NOUS SUR...

 
LOGIN :

S'inscrire | Disclaimer

   EN    FR    IT 

 









Légende :    VFR   VFR Marginal   IFR   IFR Intensif   IFR Très Intensif
Visi : 
Plafond : 
>= 8 km
>= 3000ft
5 à 8 km
1000 à 3000 ft
1500m à 5 km
500 à 1000 ft
800 à 1500m
200 à 500 ft
< 800m
< 200 ft
Symboles :   Orages  Brouillard  Fortes neiges  Fortes précipitations  Vent > 20 kt






- Altitude de l'aérodrome : 121 ft
- Code IATA : PNS


KPNS - Pensacola Regional

DERNIER METAR :
  • 290624Z AUTO 20009KT 8SM BKN008 BKN015 OVC026 24/23 A3001 RMK AO2 CIG 006V013 T02440228

METARs EXPIRÉS :
  • 290606Z AUTO 18011KT 8SM SCT008 BKN014 OVC026 24/23 A3001 RMK AO2 T02440228
  • 290553Z AUTO 18010KT 8SM BKN008 BKN015 OVC028 24/23 A3001 RMK AO2 CIG 006V011 SLP162 T02440228 10250 20239 402890228 56006
  • 290453Z AUTO 19010KT 8SM BKN009 OVC017 24/23 A3002 RMK AO2 SLP165 T02440228
  • 290424Z AUTO 18008KT 8SM BKN008 BKN017 BKN022 24/23 A3002 RMK AO2 T02390228
  • 290415Z AUTO 18008KT 8SM SCT008 BKN017 BKN022 24/23 A3002 RMK AO2 T02390228
  • 290400Z AUTO 18011KT 8SM FEW008 SCT028 24/22 A3002 RMK AO2 T02390222

TAF KPNS
Valide du 29 à 06h jusqu'au 30 à 06h UTC


290602Z 2906/3006 18010KT P6SM BKN008 BKN015 OVC025
FM290900 21005KT P6SM BKN008 BKN015 OVC025
FM291500 22008KT P6SM BKN035



MET'MAP, la Météo Aéronautique d'un coup d'oeil ! - Copyright ORBIFLY Décembre 2007 - Disclaimer

ORBIFLY MET'MAP TEAM :

Programmation & Développement : Alexandra Zaïnal
Sur une idée originale de : Baudouin d'Aumeries
Assistance à la programmation : Marc-Olivier Méhu
Soutien technique & logistique : Manuel Goepfert

Contact : metmap@orbifly.com




SOURCES & CREDITS :

   NOAA       Earth
Advisory